Time;durP1;ratioP1;P1;durP2;ratioP2;P2;SDS_P1;SDS_P2;PMS_P1;PMS_P2;Temp;Humidity;BMP_temperature;BMP_pressure;BME280_temperature;BME280_humidity;BME280_pressure;Samples;Min_cycle;Max_cycle;Signal;HPM_P1;HPM_P2
2023/06/03 00:01:03;;;;;;;5.53;3.27;;;12.60;90.30;;;;;;5032986;28;20537;-78
2023/06/03 00:03:32;;;;;;;5.93;3.00;;;12.60;90.40;;;;;;5033227;28;20570;-79
2023/06/03 00:06:01;;;;;;;6.13;3.20;;;12.60;90.40;;;;;;5033564;28;20455;-78
2023/06/03 00:08:29;;;;;;;6.23;3.60;;;12.50;90.50;;;;;;5033554;28;20442;-78
2023/06/03 00:10:57;;;;;;;6.20;3.80;;;12.50;90.50;;;;;;5034191;28;20927;-78
2023/06/03 00:13:26;;;;;;;5.33;3.07;;;12.40;90.60;;;;;;5032777;28;20451;-78
2023/06/03 00:15:54;;;;;;;7.20;4.00;;;12.40;90.90;;;;;;5034274;28;20455;-78
2023/06/03 00:18:24;;;;;;;8.50;4.90;;;12.40;90.70;;;;;;5034172;28;20470;-78
2023/06/03 00:20:52;;;;;;;8.90;7.00;;;12.30;90.70;;;;;;5032421;28;20933;-78
2023/06/03 00:23:21;;;;;;;10.20;6.77;;;12.20;90.70;;;;;;5032508;28;20847;-78
2023/06/03 00:25:49;;;;;;;8.63;5.80;;;12.20;90.80;;;;;;5033684;28;20446;-78
2023/06/03 00:28:17;;;;;;;7.87;5.23;;;12.20;90.90;;;;;;5032452;28;20946;-78
2023/06/03 00:30:46;;;;;;;7.07;4.80;;;12.20;91.00;;;;;;5032419;28;20445;-78
2023/06/03 00:33:15;;;;;;;6.83;4.30;;;12.10;91.10;;;;;;5032319;28;20459;-78
2023/06/03 00:35:45;;;;;;;5.33;3.07;;;12.00;91.10;;;;;;5033424;28;20471;-78
2023/06/03 00:38:13;;;;;;;6.40;3.60;;;12.00;91.20;;;;;;5032468;28;20518;-78
2023/06/03 00:40:41;;;;;;;6.63;2.70;;;12.00;91.20;;;;;;5032279;28;20505;-78
2023/06/03 00:43:09;;;;;;;5.10;2.13;;;11.90;91.30;;;;;;5034115;28;20509;-78
2023/06/03 00:45:38;;;;;;;5.80;2.10;;;11.90;91.30;;;;;;5032231;28;20477;-77
2023/06/03 00:48:07;;;;;;;4.47;2.00;;;11.90;91.40;;;;;;5032750;28;20520;-77
2023/06/03 00:50:36;;;;;;;4.57;2.30;;;11.80;91.40;;;;;;5032269;28;20982;-77
2023/06/03 00:53:05;;;;;;;4.20;1.80;;;11.80;91.50;;;;;;5033500;28;20883;-78
2023/06/03 00:55:34;;;;;;;3.70;1.77;;;11.70;91.50;;;;;;5031947;28;20469;-78
2023/06/03 00:58:02;;;;;;;5.10;2.07;;;11.70;91.60;;;;;;5031997;28;20474;-78
2023/06/03 01:00:31;;;;;;;4.70;1.87;;;11.60;91.60;;;;;;5033403;28;20803;-78
2023/06/03 01:03:01;;;;;;;4.57;2.10;;;11.60;91.70;;;;;;5033079;28;20505;-78
2023/06/03 01:05:29;;;;;;;4.17;1.87;;;11.60;91.70;;;;;;5033269;28;20506;-78
2023/06/03 01:08:03;;;;;;;5.53;2.10;;;11.50;92.10;;;;;;5032460;28;20509;-78
2023/06/03 01:10:41;;;;;;;4.47;1.73;;;11.50;91.90;;;;;;5032072;28;20467;-78
2023/06/03 01:13:18;;;;;;;3.80;1.73;;;11.40;91.90;;;;;;5031965;28;20978;-78
2023/06/03 01:15:50;;;;;;;4.33;2.23;;;11.40;92.00;;;;;;5031875;28;20947;-77
2023/06/03 01:18:19;;;;;;;4.40;1.70;;;11.40;92.00;;;;;;5031911;28;20509;-78
2023/06/03 01:20:49;;;;;;;5.93;2.00;;;11.30;92.10;;;;;;5031676;28;20447;-78
2023/06/03 01:23:23;;;;;;;4.67;2.20;;;11.30;92.10;;;;;;5031818;28;20458;-78
2023/06/03 01:25:56;;;;;;;4.97;1.90;;;11.30;92.20;;;;;;5031846;28;20565;-78
2023/06/03 01:28:26;;;;;;;5.13;1.93;;;11.20;92.20;;;;;;5031921;28;20432;-78
2023/06/03 01:30:56;;;;;;;4.60;1.90;;;11.20;92.30;;;;;;5032980;28;20431;-78
2023/06/03 01:33:28;;;;;;;5.10;2.20;;;11.20;92.40;;;;;;5031921;28;20471;-78
2023/06/03 01:35:59;;;;;;;4.70;2.37;;;11.20;92.50;;;;;;5033008;28;20550;-78
2023/06/03 01:38:29;;;;;;;6.47;2.37;;;11.10;92.50;;;;;;5031724;28;20466;-78
2023/06/03 01:41:01;;;;;;;5.73;2.27;;;11.10;92.50;;;;;;5033438;28;20416;-78
2023/06/03 01:43:31;;;;;;;4.77;2.23;;;11.10;92.60;;;;;;5031965;28;20453;-78
2023/06/03 01:45:59;;;;;;;4.37;2.23;;;11.00;92.60;;;;;;5031849;28;20467;-78
2023/06/03 01:48:28;;;;;;;5.93;2.40;;;10.90;92.60;;;;;;5031685;28;20449;-78
2023/06/03 01:50:56;;;;;;;4.33;2.20;;;10.90;92.60;;;;;;5031696;28;21045;-78
2023/06/03 01:53:24;;;;;;;4.80;2.20;;;10.90;92.70;;;;;;5031917;28;20450;-78
2023/06/03 01:55:54;;;;;;;5.50;2.23;;;10.90;92.80;;;;;;5031976;28;20979;-78
2023/06/03 01:58:23;;;;;;;5.17;1.80;;;10.80;92.80;;;;;;5031901;28;20493;-78
2023/06/03 02:00:51;;;;;;;4.83;2.23;;;10.80;92.90;;;;;;5034356;28;20803;-78
2023/06/03 02:03:19;;;;;;;4.30;2.23;;;10.80;92.90;;;;;;5035368;28;20447;-78
2023/06/03 02:05:48;;;;;;;5.10;2.53;;;10.70;93.00;;;;;;5035032;28;20453;-78
2023/06/03 02:08:16;;;;;;;4.30;2.07;;;10.70;93.00;;;;;;5035163;28;20443;-78
2023/06/03 02:10:46;;;;;;;5.23;2.30;;;10.70;93.00;;;;;;5035144;28;20447;-78
2023/06/03 02:13:15;;;;;;;6.50;2.23;;;10.70;93.10;;;;;;5035232;28;20451;-77
2023/06/03 02:15:43;;;;;;;4.23;1.87;;;10.60;93.10;;;;;;5034964;28;20935;-78
2023/06/03 02:18:12;;;;;;;5.30;2.60;;;10.60;93.20;;;;;;5034628;28;20455;-78
2023/06/03 02:20:40;;;;;;;5.40;2.27;;;10.60;93.20;;;;;;5035080;28;20458;-78
2023/06/03 02:23:10;;;;;;;4.77;2.23;;;10.50;93.30;;;;;;5034731;28;20446;-78
2023/06/03 02:25:39;;;;;;;4.50;2.20;;;10.50;93.30;;;;;;5036339;28;20458;-78
2023/06/03 02:28:08;;;;;;;4.70;2.00;;;10.50;93.40;;;;;;5034668;28;20947;-77
2023/06/03 02:30:39;;;;;;;6.27;2.60;;;10.40;93.40;;;;;;5036455;28;20459;-78
2023/06/03 02:33:07;;;;;;;5.30;2.37;;;10.40;93.50;;;;;;5034576;28;20827;-78
2023/06/03 02:35:36;;;;;;;4.80;2.43;;;10.40;93.50;;;;;;5034430;28;20462;-77
2023/06/03 02:38:04;;;;;;;5.00;2.47;;;10.30;93.50;;;;;;5035627;28;20451;-77
2023/06/03 02:40:33;;;;;;;4.60;2.30;;;10.30;93.60;;;;;;5034744;28;20485;-77
2023/06/03 02:43:01;;;;;;;4.90;2.10;;;10.30;93.70;;;;;;5034522;28;20455;-77
2023/06/03 02:45:30;;;;;;;4.63;2.17;;;10.20;93.70;;;;;;5034289;28;20929;-77
2023/06/03 02:48:01;;;;;;;4.70;2.40;;;10.20;93.80;;;;;;5034316;28;20825;-77
2023/06/03 02:50:30;;;;;;;5.97;2.97;;;10.20;93.80;;;;;;5034318;28;20446;-77
2023/06/03 02:52:58;;;;;;;5.17;2.57;;;10.10;93.80;;;;;;5034293;28;20455;-77
2023/06/03 02:55:27;;;;;;;5.23;2.63;;;10.10;93.90;;;;;;5034292;28;20451;-77
2023/06/03 02:57:55;;;;;;;4.40;2.10;;;10.00;93.90;;;;;;5034100;28;20471;-77
2023/06/03 03:00:24;;;;;;;5.63;2.33;;;10.00;93.90;;;;;;5034086;28;20475;-77
2023/06/03 03:02:53;;;;;;;5.00;2.70;;;10.00;94.00;;;;;;5034100;28;20454;-77
2023/06/03 03:05:24;;;;;;;8.20;2.67;;;9.90;94.60;;;;;;5035224;28;20447;-77
2023/06/03 03:07:54;;;;;;;5.83;2.73;;;9.90;94.70;;;;;;5033485;28;20482;-77
2023/06/03 03:10:22;;;;;;;4.73;2.83;;;9.80;94.70;;;;;;5033586;28;20435;-77
2023/06/03 03:12:51;;;;;;;5.33;2.60;;;9.80;94.80;;;;;;5033872;28;20824;-77
2023/06/03 03:15:21;;;;;;;4.97;2.60;;;9.80;94.80;;;;;;5033978;28;20512;-77
2023/06/03 03:17:50;;;;;;;5.63;2.80;;;9.80;94.90;;;;;;5033902;28;20474;-78
2023/06/03 03:20:19;;;;;;;6.40;2.97;;;9.70;95.00;;;;;;5033357;28;20481;-77
2023/06/03 03:22:48;;;;;;;5.90;3.33;;;9.70;95.00;;;;;;5033900;28;20467;-77
2023/06/03 03:25:21;;;;;;;5.40;3.33;;;9.60;95.10;;;;;;5034210;28;20454;-77
2023/06/03 03:27:49;;;;;;;6.30;4.17;;;9.60;95.20;;;;;;5033724;28;20983;-77
2023/06/03 03:30:18;;;;;;;7.20;5.43;;;9.60;95.20;;;;;;5033590;28;20475;-77
2023/06/03 03:32:47;;;;;;;10.60;7.77;;;9.60;95.30;;;;;;5033515;28;20585;-77
2023/06/03 03:35:21;;;;;;;8.40;5.20;;;9.50;95.30;;;;;;5033513;28;20809;-77
2023/06/03 03:38:01;;;;;;;8.10;4.70;;;9.50;95.40;;;;;;5033377;28;20470;-77
2023/06/03 03:40:32;;;;;;;5.20;3.40;;;9.50;95.50;;;;;;5033213;28;20979;-77
2023/06/03 03:43:02;;;;;;;6.60;3.77;;;9.50;95.50;;;;;;5033368;28;20879;-77
2023/06/03 03:45:35;;;;;;;8.20;3.47;;;9.40;95.50;;;;;;5033858;28;20439;-77
2023/06/03 03:48:07;;;;;;;6.23;3.60;;;9.50;95.70;;;;;;5033238;28;20453;-77
2023/06/03 03:50:44;;;;;;;5.90;3.40;;;9.40;95.70;;;;;;5033389;28;20530;-77
2023/06/03 03:53:21;;;;;;;6.30;4.03;;;9.40;95.80;;;;;;5033243;28;20940;-77
2023/06/03 03:55:51;;;;;;;6.77;3.37;;;9.40;95.90;;;;;;5034704;28;20491;-75
2023/06/03 03:58:26;;;;;;;5.50;3.00;;;9.40;95.90;;;;;;5033967;28;20489;-75
2023/06/03 04:01:00;;;;;;;5.43;3.40;;;9.40;96.10;;;;;;5033234;28;20485;-75
2023/06/03 04:03:35;;;;;;;5.60;3.13;;;9.40;96.10;;;;;;5033021;28;20441;-76
2023/06/03 04:06:05;;;;;;;7.90;3.43;;;9.40;96.20;;;;;;5033099;28;20984;-76
2023/06/03 04:08:43;;;;;;;5.20;2.80;;;9.30;96.20;;;;;;5033038;28;20447;-76
2023/06/03 04:11:19;;;;;;;5.60;3.30;;;9.40;96.40;;;;;;5032886;28;20449;-76
2023/06/03 04:13:48;;;;;;;7.13;3.00;;;9.40;96.50;;;;;;5032886;28;20439;-76
2023/06/03 04:16:48;;;;;;;7.93;3.50;;;9.30;96.50;;;;;;5032989;28;20505;-76
2023/06/03 04:19:30;;;;;;;7.90;3.30;;;9.40;96.60;;;;;;5032727;28;20479;-76
2023/06/03 04:22:01;;;;;;;6.30;2.93;;;9.30;96.60;;;;;;5032414;28;20978;-76
2023/06/03 04:24:30;;;;;;;4.67;2.83;;;9.40;96.70;;;;;;5032620;28;20864;-76
2023/06/03 04:26:59;;;;;;;6.33;3.57;;;9.40;96.80;;;;;;5032797;28;20502;-76
2023/06/03 04:29:27;;;;;;;5.50;3.13;;;9.40;96.80;;;;;;5032835;28;20447;-75
2023/06/03 04:31:55;;;;;;;5.47;3.00;;;9.40;96.90;;;;;;5032666;28;20447;-76
2023/06/03 04:34:28;;;;;;;6.90;3.30;;;9.40;96.90;;;;;;5032621;28;20451;-75
2023/06/03 04:36:58;;;;;;;5.70;2.90;;;9.40;97.00;;;;;;5032645;28;20481;-75
2023/06/03 04:39:27;;;;;;;4.90;2.70;;;9.50;97.00;;;;;;5036762;28;20466;-75
2023/06/03 04:42:07;;;;;;;5.40;3.27;;;9.40;97.10;;;;;;5035857;28;20474;-75
2023/06/03 04:44:37;;;;;;;6.33;3.30;;;9.50;97.20;;;;;;5037348;28;20454;-76
2023/06/03 04:47:10;;;;;;;8.10;3.20;;;9.50;97.30;;;;;;5033480;28;21026;-76
2023/06/03 04:49:40;;;;;;;5.80;3.13;;;9.50;97.30;;;;;;5036231;28;20479;-76
2023/06/03 04:52:09;;;;;;;5.80;2.83;;;9.60;97.50;;;;;;5032943;28;20447;-76
2023/06/03 04:54:43;;;;;;;5.00;3.03;;;9.60;97.50;;;;;;5032273;28;20449;-76
2023/06/03 04:57:15;;;;;;;4.77;2.67;;;9.70;97.60;;;;;;5032213;28;20475;-76
2023/06/03 04:59:44;;;;;;;4.90;3.00;;;9.70;97.70;;;;;;5032243;28;20467;-76
2023/06/03 05:02:16;;;;;;;5.10;2.73;;;9.70;97.70;;;;;;5032270;28;20495;-76
2023/06/03 05:04:49;;;;;;;5.30;2.73;;;9.80;97.80;;;;;;5032211;28;20448;-76
2023/06/03 05:07:18;;;;;;;5.20;3.10;;;9.80;97.80;;;;;;5032094;28;20470;-76
2023/06/03 05:09:46;;;;;;;5.67;2.80;;;9.90;97.90;;;;;;5032074;28;20455;-76
2023/06/03 05:12:18;;;;;;;5.87;2.57;;;9.90;97.90;;;;;;5032223;28;20487;-77
2023/06/03 05:14:47;;;;;;;6.20;2.83;;;9.90;98.00;;;;;;5032427;28;20431;-76
2023/06/03 05:17:17;;;;;;;5.53;2.83;;;10.00;97.50;;;;;;5032078;28;20885;-75
2023/06/03 05:19:46;;;;;;;5.30;2.80;;;10.00;97.60;;;;;;5033208;28;20892;-76
2023/06/03 05:22:15;;;;;;;4.83;2.60;;;10.10;97.60;;;;;;5032209;28;20504;-76
2023/06/03 05:24:43;;;;;;;5.17;2.97;;;10.10;97.70;;;;;;5032152;28;20538;-76
2023/06/03 05:27:11;;;;;;;5.13;3.00;;;10.20;97.80;;;;;;5031909;28;20463;-75
2023/06/03 05:29:41;;;;;;;5.60;2.80;;;10.20;97.80;;;;;;5031872;28;20451;-76
2023/06/03 05:32:09;;;;;;;4.63;2.53;;;10.30;97.80;;;;;;5031850;28;20446;-76
2023/06/03 05:34:38;;;;;;;5.60;2.53;;;10.40;97.90;;;;;;5034235;28;20439;-76
2023/06/03 05:37:07;;;;;;;5.67;2.77;;;10.50;97.90;;;;;;5035691;28;20561;-76
2023/06/03 05:39:35;;;;;;;5.73;2.90;;;10.60;97.90;;;;;;5035551;28;20450;-76
2023/06/03 05:42:07;;;;;;;5.97;2.60;;;10.80;98.00;;;;;;5035791;28;20475;-77
2023/06/03 05:44:35;;;;;;;4.93;2.80;;;11.00;98.10;;;;;;5035675;28;20443;-76
2023/06/03 05:47:06;;;;;;;5.00;2.97;;;11.20;98.20;;;;;;5035551;28;20502;-77
2023/06/03 05:49:34;;;;;;;5.93;2.80;;;11.50;98.30;;;;;;5035558;28;20542;-76
2023/06/03 05:52:02;;;;;;;5.83;2.77;;;11.70;98.30;;;;;;5037318;28;20431;-77
2023/06/03 05:54:30;;;;;;;4.70;2.37;;;12.00;98.40;;;;;;5035274;28;20533;-77
2023/06/03 05:56:59;;;;;;;4.97;2.77;;;12.20;98.40;;;;;;5035335;28;20462;-77
2023/06/03 05:59:31;;;;;;;5.53;2.70;;;12.50;98.40;;;;;;5035437;28;20817;-76
2023/06/03 06:01:59;;;;;;;5.40;2.70;;;12.80;98.40;;;;;;5035098;28;20517;-76
2023/06/03 06:04:28;;;;;;;4.80;2.30;;;13.10;98.40;;;;;;5035248;28;21077;-77
2023/06/03 06:06:57;;;;;;;5.77;2.67;;;13.40;98.30;;;;;;5035154;28;20990;-77
2023/06/03 06:09:25;;;;;;;5.63;2.10;;;13.70;98.30;;;;;;5036573;28;20443;-76
2023/06/03 06:11:54;;;;;;;6.33;2.53;;;14.00;98.10;;;;;;5034853;28;20446;-75
2023/06/03 06:14:22;;;;;;;5.10;2.40;;;14.20;97.90;;;;;;5035094;28;20442;-76
2023/06/03 06:16:52;;;;;;;5.13;2.37;;;14.40;98.00;;;;;;5034841;28;20463;-77
2023/06/03 06:19:21;;;;;;;4.27;2.30;;;14.60;97.50;;;;;;5037713;28;20465;-78
2023/06/03 06:21:52;;;;;;;4.93;2.20;;;14.90;97.40;;;;;;5035052;28;20812;-78
2023/06/03 06:24:20;;;;;;;5.57;2.67;;;15.10;97.20;;;;;;5038388;28;20530;-78
2023/06/03 06:26:49;;;;;;;5.30;2.37;;;15.30;97.10;;;;;;5038311;28;20971;-78
2023/06/03 06:29:18;;;;;;;4.63;2.60;;;15.40;97.00;;;;;;5035550;28;20456;-78
2023/06/03 06:31:47;;;;;;;4.03;2.00;;;15.60;96.90;;;;;;5037573;28;20421;-78
2023/06/03 06:34:18;;;;;;;4.43;1.93;;;15.80;96.80;;;;;;5037462;28;20414;-78
2023/06/03 06:36:52;;;;;;;4.57;2.33;;;16.00;96.60;;;;;;5040681;28;20528;-78
2023/06/03 06:39:46;;;;;;;7.57;2.60;;;16.20;96.50;;;;;;5041827;28;20417;-80
2023/06/03 06:42:40;;;;;;;4.17;2.37;;;16.40;96.40;;;;;;5037380;28;20444;-79
2023/06/03 06:45:25;;;;;;;4.20;1.97;;;16.60;96.30;;;;;;5042111;28;20450;-79
2023/06/03 06:48:03;;;;;;;3.80;1.83;;;16.80;96.20;;;;;;5035982;28;20466;-77
2023/06/03 06:50:47;;;;;;;5.10;2.17;;;17.00;96.10;;;;;;5034302;28;20453;-76
2023/06/03 06:53:20;;;;;;;5.00;1.80;;;17.10;95.90;;;;;;5035120;28;20782;-77
2023/06/03 06:55:52;;;;;;;4.63;1.90;;;17.30;95.80;;;;;;5034100;28;20601;-77
2023/06/03 06:58:35;;;;;;;4.67;1.90;;;17.50;95.50;;;;;;5034278;28;20534;-79
2023/06/03 07:01:05;;;;;;;4.43;1.70;;;17.60;95.20;;;;;;5041338;28;20986;-79
2023/06/03 07:03:38;;;;;;;7.73;1.70;;;17.70;94.80;;;;;;5041808;28;20445;-82
2023/06/03 07:06:07;;;;;;;4.60;2.00;;;17.80;94.60;;;;;;5041476;28;20479;-83
2023/06/03 07:08:38;;;;;;;6.70;2.10;;;18.00;94.50;;;;;;5040829;28;20443;-82
2023/06/03 07:11:07;;;;;;;4.77;2.10;;;18.10;94.20;;;;;;5040043;28;20446;-77
2023/06/03 07:13:41;;;;;;;4.30;1.97;;;18.20;94.00;;;;;;5040566;28;20570;-82
2023/06/03 07:16:12;;;;;;;5.90;2.33;;;18.30;93.90;;;;;;5039382;28;20537;-84
2023/06/03 07:18:41;;;;;;;5.40;2.10;;;18.40;93.70;;;;;;5041999;28;20474;-88
2023/06/03 07:21:10;;;;;;;6.90;2.03;;;18.40;93.60;;;;;;5056447;28;20475;-87
2023/06/03 07:23:44;;;;;;;3.90;1.80;;;18.60;93.40;;;;;;5058753;28;20452;-87
2023/06/03 07:26:13;;;;;;;6.23;1.90;;;18.70;93.20;;;;;;5052936;28;20831;-80
2023/06/03 07:28:41;;;;;;;4.47;1.70;;;18.70;93.00;;;;;;5043838;28;20435;-80
2023/06/03 07:31:13;;;;;;;3.70;1.50;;;18.80;92.90;;;;;;5039854;28;20443;-80
2023/06/03 07:33:50;;;;;;;4.60;1.80;;;18.90;92.60;;;;;;5040307;28;20435;-80
2023/06/03 07:36:26;;;;;;;3.40;1.30;;;18.90;92.60;;;;;;5039388;28;20472;-80
2023/06/03 07:39:02;;;;;;;5.20;2.07;;;19.00;92.50;;;;;;5039896;28;20462;-81
2023/06/03 07:41:37;;;;;;;3.50;1.43;;;19.10;92.50;;;;;;5039191;28;20474;-81
2023/06/03 07:44:08;;;;;;;3.77;1.53;;;19.20;92.70;;;;;;5038342;28;20444;-80
2023/06/03 07:46:39;;;;;;;3.90;1.40;;;19.30;92.20;;;;;;5039316;28;20897;-80
2023/06/03 07:49:09;;;;;;;4.63;1.53;;;19.30;91.90;;;;;;5038887;28;20820;-80
2023/06/03 07:51:41;;;;;;;5.03;1.67;;;19.40;91.80;;;;;;5037633;28;20505;-80
2023/06/03 07:54:11;;;;;;;4.90;1.40;;;19.50;91.90;;;;;;5038927;28;20573;-81
2023/06/03 07:56:40;;;;;;;4.83;1.43;;;19.50;91.80;;;;;;5036996;28;20888;-79
2023/06/03 07:59:10;;;;;;;4.23;1.03;;;19.60;91.50;;;;;;5038073;28;20431;-80
2023/06/03 08:01:39;;;;;;;4.33;1.30;;;19.60;91.20;;;;;;5038585;28;20467;-81
2023/06/03 08:04:26;;;;;;;3.37;1.20;;;19.60;90.90;;;;;;5037711;28;20457;-80
2023/06/03 08:06:55;;;;;;;5.60;1.60;;;19.60;90.60;;;;;;5039215;28;20531;-80
2023/06/03 08:09:28;;;;;;;3.60;1.13;;;19.60;90.70;;;;;;5038037;28;21033;-78
2023/06/03 08:11:57;;;;;;;4.93;1.10;;;19.60;90.20;;;;;;5036903;28;20443;-80
2023/06/03 08:14:26;;;;;;;3.90;1.30;;;19.60;90.20;;;;;;5038434;28;20435;-80
2023/06/03 08:16:56;;;;;;;3.40;1.10;;;19.60;90.10;;;;;;5041491;28;20473;-81
2023/06/03 08:19:24;;;;;;;3.60;1.33;;;19.60;89.70;;;;;;5037860;28;20481;-79
2023/06/03 08:21:53;;;;;;;3.40;1.13;;;19.60;90.00;;;;;;5039252;28;20455;-80
2023/06/03 08:24:21;;;;;;;6.60;1.47;;;19.60;90.00;;;;;;5036839;28;20447;-80
2023/06/03 08:26:50;;;;;;;3.87;1.17;;;19.70;89.70;;;;;;5035967;28;20466;-79
2023/06/03 08:29:19;;;;;;;4.50;1.40;;;19.70;89.20;;;;;;5035930;28;20542;-80
2023/06/03 08:31:47;;;;;;;4.30;2.03;;;19.70;89.00;;;;;;5036639;28;20501;-79
2023/06/03 08:34:15;;;;;;;4.40;1.60;;;19.80;90.00;;;;;;5036417;28;20439;-79
2023/06/03 08:36:43;;;;;;;4.80;1.60;;;19.90;89.00;;;;;;5036583;28;20463;-77
2023/06/03 08:39:12;;;;;;;3.60;1.20;;;19.90;88.80;;;;;;5037282;28;20451;-79
2023/06/03 08:41:44;;;;;;;5.97;1.50;;;19.90;88.90;;;;;;5037096;28;20481;-80
2023/06/03 08:44:21;;;;;;;4.27;1.50;;;20.00;88.90;;;;;;5037440;28;20485;-81
2023/06/03 08:47:00;;;;;;;3.53;1.07;;;20.00;88.40;;;;;;5037143;28;20520;-80
2023/06/03 08:49:37;;;;;;;3.70;1.10;;;20.10;88.50;;;;;;5037317;28;20419;-79
2023/06/03 08:52:08;;;;;;;3.83;1.20;;;20.10;88.20;;;;;;5037250;28;20514;-82
2023/06/03 08:54:38;;;;;;;3.70;1.00;;;20.10;88.30;;;;;;5037535;28;20445;-80
2023/06/03 08:57:11;;;;;;;4.63;1.27;;;20.20;88.00;;;;;;5035224;28;21091;-78
2023/06/03 08:59:43;;;;;;;4.50;1.20;;;20.20;87.40;;;;;;5034872;28;20854;-77
2023/06/03 09:02:12;;;;;;;3.70;1.20;;;20.20;87.10;;;;;;5032681;28;20893;-77
2023/06/03 09:04:42;;;;;;;4.17;1.37;;;20.20;86.40;;;;;;5032194;28;20534;-78
2023/06/03 09:07:11;;;;;;;7.07;1.40;;;20.20;86.00;;;;;;5037162;28;20516;-86
2023/06/03 09:09:41;;;;;;;3.60;1.10;;;20.20;85.80;;;;;;5040317;28;20431;-87
2023/06/03 09:12:10;;;;;;;4.03;1.07;;;20.20;85.60;;;;;;5039658;28;20530;-75
2023/06/03 09:14:41;;;;;;;5.53;1.43;;;20.30;85.60;;;;;;5037233;28;20443;-76
2023/06/03 09:17:10;;;;;;;3.87;1.30;;;20.30;85.30;;;;;;5039419;28;20497;-77
2023/06/03 09:19:38;;;;;;;3.80;1.53;;;20.40;85.20;;;;;;5037597;28;20454;-75
2023/06/03 09:22:08;;;;;;;3.90;1.30;;;20.40;84.70;;;;;;5037337;28;20470;-76
2023/06/03 09:24:36;;;;;;;5.53;1.17;;;20.40;84.50;;;;;;5037533;28;20435;-77
2023/06/03 09:27:05;;;;;;;4.70;1.30;;;20.30;84.30;;;;;;5037906;28;20899;-77
2023/06/03 09:29:33;;;;;;;4.50;1.33;;;20.20;83.90;;;;;;5039021;28;20473;-77
2023/06/03 09:32:04;;;;;;;5.10;1.37;;;20.20;83.70;;;;;;5041471;28;20447;-78
2023/06/03 09:34:32;;;;;;;3.97;1.33;;;20.20;83.50;;;;;;5041121;28;20449;-81
2023/06/03 09:37:08;;;;;;;4.70;1.40;;;20.20;83.30;;;;;;5042086;28;20489;-78
2023/06/03 09:39:37;;;;;;;3.60;1.30;;;20.20;83.10;;;;;;5042965;28;20430;-78
2023/06/03 09:42:06;;;;;;;4.47;1.50;;;20.20;83.20;;;;;;5041071;28;20521;-79
2023/06/03 09:44:40;;;;;;;3.90;1.40;;;20.20;83.20;;;;;;5044544;28;20438;-81
2023/06/03 09:47:11;;;;;;;4.80;1.70;;;20.20;83.30;;;;;;5041593;28;20501;-81
2023/06/03 09:49:40;;;;;;;3.60;1.10;;;20.20;84.00;;;;;;5043606;28;20419;-80
2023/06/03 09:52:11;;;;;;;4.30;1.40;;;20.30;84.10;;;;;;5041717;28;20566;-84
2023/06/03 09:54:41;;;;;;;4.50;1.57;;;20.30;83.80;;;;;;5043186;28;20483;-83
2023/06/03 09:57:12;;;;;;;4.13;1.20;;;20.40;83.70;;;;;;5040013;28;20451;-85
2023/06/03 09:59:43;;;;;;;3.97;1.20;;;20.40;83.90;;;;;;5039089;28;20438;-86
2023/06/03 10:02:13;;;;;;;3.97;1.40;;;20.40;84.20;;;;;;5040739;28;20835;-85
2023/06/03 10:04:44;;;;;;;3.90;1.37;;;20.50;83.70;;;;;;5040241;28;20538;-84
2023/06/03 10:07:17;;;;;;;4.30;1.20;;;20.50;83.10;;;;;;5041177;28;20475;-84
2023/06/03 10:09:49;;;;;;;6.37;1.20;;;20.60;82.60;;;;;;5039405;28;20493;-83
2023/06/03 10:12:29;;;;;;;3.90;1.17;;;20.50;82.00;;;;;;5040501;28;20455;-85
2023/06/03 10:14:58;;;;;;;4.00;1.20;;;20.50;81.50;;;;;;5040088;28;20435;-87
2023/06/03 10:17:30;;;;;;;3.67;1.20;;;20.50;81.50;;;;;;5039640;28;20474;-82
2023/06/03 10:19:58;;;;;;;3.90;1.20;;;20.50;81.30;;;;;;5039816;28;20462;-82
2023/06/03 10:22:26;;;;;;;3.83;1.20;;;20.50;81.30;;;;;;5039848;28;20443;-82
2023/06/03 10:24:56;;;;;;;4.37;1.50;;;20.60;80.80;;;;;;5040747;28;20458;-83
2023/06/03 10:27:25;;;;;;;4.93;1.27;;;20.60;80.30;;;;;;5042001;28;20481;-83
2023/06/03 10:29:54;;;;;;;4.67;1.30;;;20.60;80.40;;;;;;5040255;28;20454;-83
2023/06/03 10:32:24;;;;;;;3.80;1.50;;;20.70;80.70;;;;;;5040193;28;20474;-83
2023/06/03 10:34:55;;;;;;;4.57;1.30;;;20.70;80.20;;;;;;5041783;28;20462;-83
2023/06/03 10:37:25;;;;;;;4.97;1.20;;;20.80;79.70;;;;;;5042632;28;20538;-82
2023/06/03 10:39:55;;;;;;;3.40;1.30;;;20.80;79.40;;;;;;5040646;28;20458;-82
2023/06/03 10:42:24;;;;;;;3.97;1.43;;;20.80;79.10;;;;;;5039527;28;20455;-83
2023/06/03 10:44:52;;;;;;;3.70;1.10;;;20.80;78.60;;;;;;5038749;28;20880;-76
2023/06/03 10:47:25;;;;;;;3.90;1.20;;;20.80;78.60;;;;;;5040960;28;20489;-85
2023/06/03 10:50:02;;;;;;;5.50;1.53;;;20.80;78.50;;;;;;5041245;28;20423;-84
2023/06/03 10:52:51;;;;;;;4.50;1.40;;;20.80;78.40;;;;;;5040682;28;20439;-83
2023/06/03 10:55:31;;;;;;;7.20;1.63;;;20.80;78.00;;;;;;5038717;28;20443;-80
2023/06/03 10:58:03;;;;;;;4.53;1.30;;;20.90;78.10;;;;;;5042287;28;20461;-85
2023/06/03 11:00:54;;;;;;;4.67;1.23;;;20.90;78.00;;;;;;5039267;28;20533;-84
2023/06/03 11:03:23;;;;;;;3.50;1.40;;;20.90;78.20;;;;;;5037643;28;20467;-84
2023/06/03 11:05:53;;;;;;;4.63;1.30;;;21.00;78.60;;;;;;5039444;28;20481;-85
2023/06/03 11:09:16;;;;;;;4.67;1.30;;;21.00;78.50;;;;;;5041337;28;20453;-83
2023/06/03 11:12:04;;;;;;;4.60;1.50;;;21.10;78.50;;;;;;4999079;28;20452;-85
2023/06/03 11:15:06;;;;;;;3.63;1.47;;;21.10;78.40;;;;;;5035664;28;20978;-81
2023/06/03 11:17:36;;;;;;;4.60;1.70;;;21.20;78.00;;;;;;5037362;28;20505;-79
2023/06/03 11:20:05;;;;;;;4.30;1.70;;;21.20;78.30;;;;;;5035530;28;20466;-76
2023/06/03 11:22:44;;;;;;;3.90;1.20;;;21.20;77.60;;;;;;5036846;28;20832;-78
2023/06/03 11:25:29;;;;;;;4.37;1.73;;;21.20;77.00;;;;;;5036063;28;20465;-80
2023/06/03 11:28:34;;;;;;;3.80;1.40;;;21.20;76.80;;;;;;5035400;28;20463;-75
2023/06/03 11:31:07;;;;;;;5.03;1.50;;;21.20;76.70;;;;;;5037109;28;20442;-79
2023/06/03 11:33:36;;;;;;;5.40;1.80;;;21.10;76.50;;;;;;5035381;28;20451;-76
2023/06/03 11:36:46;;;;;;;6.00;1.53;;;21.10;76.90;;;;;;5034544;28;20459;-73
2023/06/03 11:39:16;;;;;;;4.73;1.60;;;21.10;76.70;;;;;;5036398;28;20815;-77
2023/06/03 11:42:17;;;;;;;3.40;1.20;;;21.10;77.00;;;;;;5034106;28;20553;-78
2023/06/03 11:44:45;;;;;;;4.07;1.63;;;21.10;76.80;;;;;;5036870;28;20517;-82
2023/06/03 11:47:13;;;;;;;6.30;1.77;;;21.20;76.90;;;;;;5033719;28;20467;-73
2023/06/03 11:49:42;;;;;;;3.70;1.50;;;21.30;76.80;;;;;;5034417;28;20441;-73
2023/06/03 11:52:11;;;;;;;4.10;1.30;;;21.40;76.50;;;;;;5033194;28;20447;-71
2023/06/03 11:54:46;;;;;;;4.10;1.60;;;21.40;76.20;;;;;;5034278;28;20445;-70
2023/06/03 11:57:14;;;;;;;4.03;1.47;;;21.50;75.80;;;;;;5034607;28;20508;-76
2023/06/03 11:59:47;;;;;;;4.40;1.40;;;21.50;75.60;;;;;;5035323;28;21019;-74
2023/06/03 12:02:15;;;;;;;4.13;1.30;;;21.50;75.70;;;;;;5036658;28;20431;-74
2023/06/03 12:04:45;;;;;;;3.60;1.27;;;21.50;75.60;;;;;;5033948;28;20467;-78
2023/06/03 12:07:15;;;;;;;5.30;1.50;;;21.50;75.50;;;;;;5033512;28;20477;-80
2023/06/03 12:09:45;;;;;;;3.43;1.40;;;21.50;75.30;;;;;;5036660;28;20843;-80
2023/06/03 12:12:14;;;;;;;5.73;1.50;;;21.50;74.80;;;;;;5034249;28;21015;-74
2023/06/03 12:14:44;;;;;;;5.00;1.53;;;21.50;74.90;;;;;;5034714;28;20804;-81
2023/06/03 12:17:14;;;;;;;3.30;1.30;;;21.50;74.90;;;;;;5033602;28;20467;-77
2023/06/03 12:19:44;;;;;;;3.60;1.27;;;21.50;74.70;;;;;;5033995;28;20446;-73
2023/06/03 12:22:13;;;;;;;4.20;1.27;;;21.50;74.90;;;;;;5034028;28;20521;-74
2023/06/03 12:24:43;;;;;;;3.60;1.30;;;21.50;74.90;;;;;;5034190;28;20494;-78
2023/06/03 12:27:14;;;;;;;6.23;1.43;;;21.60;75.20;;;;;;5033757;28;20979;-73
2023/06/03 12:29:43;;;;;;;3.80;1.40;;;21.60;74.40;;;;;;5033849;28;20916;-69
2023/06/03 12:32:12;;;;;;;5.73;1.63;;;21.50;74.30;;;;;;5032825;28;20443;-68
2023/06/03 12:34:41;;;;;;;3.40;1.40;;;21.60;74.90;;;;;;5033378;28;20442;-66
2023/06/03 12:37:09;;;;;;;5.00;1.40;;;21.60;74.20;;;;;;5033576;28;20446;-67
2023/06/03 12:39:46;;;;;;;4.73;1.60;;;21.60;74.00;;;;;;5033627;28;20439;-76
2023/06/03 12:42:16;;;;;;;4.33;1.47;;;21.60;74.10;;;;;;5032175;28;20465;-70
2023/06/03 12:44:46;;;;;;;4.00;1.60;;;21.60;73.90;;;;;;5034561;28;20447;-75
2023/06/03 12:47:15;;;;;;;4.80;1.63;;;21.60;73.90;;;;;;5033917;28;20462;-73
2023/06/03 12:49:44;;;;;;;4.23;1.30;;;21.60;73.70;;;;;;5036077;28;20435;-80
2023/06/03 12:52:15;;;;;;;4.20;1.43;;;21.50;73.40;;;;;;5033330;28;20447;-73
2023/06/03 12:54:50;;;;;;;4.80;1.60;;;21.50;73.40;;;;;;5034426;28;20888;-66
2023/06/03 12:57:21;;;;;;;3.83;1.20;;;21.50;73.40;;;;;;5033533;28;20482;-67
2023/06/03 13:00:07;;;;;;;4.50;1.30;;;21.50;73.40;;;;;;5033391;28;20419;-70
2023/06/03 13:02:35;;;;;;;3.57;1.13;;;21.50;73.20;;;;;;5032028;28;20461;-67
2023/06/03 13:05:04;;;;;;;5.13;1.63;;;21.50;73.40;;;;;;5033576;28;20467;-67
2023/06/03 13:07:34;;;;;;;7.30;2.20;;;21.50;73.40;;;;;;5031848;28;20459;-70
2023/06/03 13:10:03;;;;;;;15.60;5.73;;;21.50;73.40;;;;;;5033309;28;20426;-66